createdAt,value
2017-11-25T00:00:39.434Z,1004.10
2017-11-25T00:01:39.412Z,1004.08
2017-11-25T00:02:39.398Z,1004.08
2017-11-25T00:03:39.377Z,1004.07
2017-11-25T00:04:39.355Z,1004.06
2017-11-25T00:05:39.333Z,1004.07
2017-11-25T00:06:39.317Z,1004.10
2017-11-25T00:07:39.292Z,1004.07
2017-11-25T00:08:39.275Z,1004.09
2017-11-25T00:09:39.252Z,1004.06
2017-11-25T00:10:39.244Z,1004.10
2017-11-25T00:11:39.214Z,1004.12
2017-11-25T00:12:39.195Z,1004.09
2017-11-25T00:13:39.175Z,1004.07
2017-11-25T00:14:39.156Z,1004.09
2017-11-25T00:15:39.151Z,1004.13
2017-11-25T00:16:39.119Z,1004.09
2017-11-25T00:17:39.096Z,1004.10
2017-11-25T00:18:39.090Z,1004.08
2017-11-25T00:19:39.058Z,1004.06
2017-11-25T00:20:39.053Z,1004.04
2017-11-25T00:21:39.025Z,1004.01
2017-11-25T00:22:39.002Z,1004.01
2017-11-25T00:23:38.976Z,1004.03
2017-11-25T00:24:38.964Z,1003.99
2017-11-25T00:25:38.938Z,1004.03
2017-11-25T00:26:38.917Z,1004.04
2017-11-25T00:27:38.896Z,1004.06
2017-11-25T00:28:38.875Z,1004.04
2017-11-25T00:29:38.857Z,1004.09
2017-11-25T00:30:38.833Z,1004.05
2017-11-25T00:31:38.824Z,1004.07
2017-11-25T00:32:38.794Z,1004.04
2017-11-25T00:33:38.777Z,1004.06
2017-11-25T00:34:38.757Z,1004.04
2017-11-25T00:35:38.737Z,1004.06
2017-11-25T00:36:38.717Z,1004.02
2017-11-25T00:37:38.699Z,1004.00
2017-11-25T00:38:38.679Z,1004.06
2017-11-25T00:39:38.673Z,1004.01
2017-11-25T00:40:38.646Z,1004.02
2017-11-25T00:41:38.622Z,1003.99
2017-11-25T00:42:38.601Z,1003.98
2017-11-25T00:43:38.580Z,1003.96
2017-11-25T00:44:38.565Z,1003.99
2017-11-25T00:45:38.542Z,1003.99
2017-11-25T00:46:38.526Z,1004.00
2017-11-25T00:47:38.502Z,1003.99
2017-11-25T00:48:38.498Z,1004.05
2017-11-25T00:49:38.467Z,1004.07
2017-11-25T00:50:38.446Z,1004.08
2017-11-25T00:51:38.426Z,1004.06
2017-11-25T00:52:38.407Z,1004.04
2017-11-25T00:53:38.387Z,1004.07
2017-11-25T00:54:38.366Z,1004.04
2017-11-25T00:55:38.346Z,1004.06
2017-11-25T00:56:38.323Z,1004.04
2017-11-25T00:57:38.307Z,1004.03
2017-11-25T00:58:38.287Z,1004.02
2017-11-25T00:59:38.269Z,1004.03
2017-11-25T01:00:38.249Z,1004.04
2017-11-25T01:01:38.227Z,1004.02
2017-11-25T01:02:38.211Z,1004.01
2017-11-25T01:03:38.186Z,1003.98
2017-11-25T01:04:38.168Z,1004.00
2017-11-25T01:05:38.145Z,1003.93
2017-11-25T01:06:38.126Z,1003.92
2017-11-25T01:07:38.105Z,1003.86
2017-11-25T01:08:38.091Z,1003.85
2017-11-25T01:09:38.066Z,1003.81
2017-11-25T01:10:38.047Z,1003.79
2017-11-25T01:11:38.023Z,1003.82
2017-11-25T01:12:38.016Z,1003.87
2017-11-25T01:13:37.983Z,1003.92
2017-11-25T01:14:37.965Z,1003.91
2017-11-25T01:15:37.955Z,1003.94
2017-11-25T01:16:37.936Z,1003.90
2017-11-25T01:17:37.913Z,1003.91
2017-11-25T01:18:37.896Z,1003.90
2017-11-25T01:19:37.874Z,1003.90
2017-11-25T01:20:37.855Z,1003.92
2017-11-25T01:21:37.835Z,1003.91
2017-11-25T01:22:37.816Z,1003.92
2017-11-25T01:23:37.794Z,1003.97
2017-11-25T01:24:37.773Z,1003.93
2017-11-25T01:25:37.757Z,1003.91
2017-11-25T01:26:37.735Z,1003.87
2017-11-25T01:27:37.717Z,1003.87
2017-11-25T01:28:37.694Z,1003.85
2017-11-25T01:29:37.673Z,1003.82
2017-11-25T01:30:37.654Z,1003.82
2017-11-25T01:31:37.631Z,1003.86
2017-11-25T01:32:37.614Z,1003.87
2017-11-25T01:33:37.593Z,1003.91
2017-11-25T01:34:37.584Z,1003.92
2017-11-25T01:35:37.565Z,1003.90
2017-11-25T01:36:37.538Z,1003.89
2017-11-25T01:37:37.513Z,1003.92
2017-11-25T01:38:37.493Z,1003.91
2017-11-25T01:39:37.477Z,1003.92
2017-11-25T01:40:37.463Z,1003.95
2017-11-25T01:41:37.434Z,1003.96
2017-11-25T01:42:37.416Z,1003.92
2017-11-25T01:43:37.394Z,1003.90
2017-11-25T01:44:37.378Z,1003.89
2017-11-25T01:45:37.354Z,1003.84
2017-11-25T01:46:37.335Z,1003.77
2017-11-25T01:47:37.321Z,1003.71
2017-11-25T01:48:37.312Z,1003.67
2017-11-25T01:49:37.277Z,1003.67
2017-11-25T01:50:37.264Z,1003.67
2017-11-25T01:51:37.233Z,1003.65
2017-11-25T01:52:37.218Z,1003.66
2017-11-25T01:53:37.196Z,1003.63
2017-11-25T01:54:37.179Z,1003.62
2017-11-25T01:55:37.162Z,1003.60
2017-11-25T01:56:37.145Z,1003.61
2017-11-25T01:57:37.116Z,1003.61
2017-11-25T01:58:37.100Z,1003.60
2017-11-25T01:59:37.076Z,1003.58
2017-11-25T02:00:37.066Z,1003.54
2017-11-25T02:01:37.034Z,1003.54
2017-11-25T02:02:37.015Z,1003.51
2017-11-25T02:03:36.998Z,1003.51
2017-11-25T02:04:36.985Z,1003.52
2017-11-25T02:05:36.964Z,1003.50
2017-11-25T02:06:36.939Z,1003.47
2017-11-25T02:07:36.924Z,1003.49
2017-11-25T02:08:36.897Z,1003.54
2017-11-25T02:09:36.885Z,1003.52
2017-11-25T02:10:36.864Z,1003.52
2017-11-25T02:11:36.846Z,1003.50
2017-11-25T02:12:36.835Z,1003.44
2017-11-25T02:13:36.810Z,1003.46
2017-11-25T02:14:36.781Z,1003.44
2017-11-25T02:15:36.764Z,1003.39
2017-11-25T02:16:36.742Z,1003.39
2017-11-25T02:17:36.723Z,1003.37
2017-11-25T02:18:36.703Z,1003.34
2017-11-25T02:19:36.683Z,1003.32
2017-11-25T02:20:36.662Z,1003.31
2017-11-25T02:21:36.645Z,1003.25
2017-11-25T02:22:36.623Z,1003.25
2017-11-25T02:23:36.853Z,1003.27
2017-11-25T02:24:36.594Z,1003.27
2017-11-25T02:25:36.564Z,1003.28
2017-11-25T02:26:36.544Z,1003.30
2017-11-25T02:27:36.532Z,1003.26
2017-11-25T02:28:36.534Z,1003.27
2017-11-25T02:29:36.484Z,1003.24
2017-11-25T02:30:36.464Z,1003.22
2017-11-25T02:31:36.446Z,1003.21
2017-11-25T02:32:36.427Z,1003.20
2017-11-25T02:33:36.404Z,1003.20
2017-11-25T02:34:36.387Z,1003.14
2017-11-25T02:35:36.366Z,1003.20
2017-11-25T02:36:36.344Z,1003.18
2017-11-25T02:37:36.338Z,1003.18
2017-11-25T02:38:36.304Z,1003.22
2017-11-25T02:39:36.284Z,1003.17
2017-11-25T02:40:36.264Z,1003.19
2017-11-25T02:41:36.243Z,1003.17
2017-11-25T02:42:36.229Z,1003.19
2017-11-25T02:43:36.207Z,1003.19
2017-11-25T02:44:36.190Z,1003.14
2017-11-25T02:45:36.163Z,1003.08
2017-11-25T02:46:36.144Z,1003.03
2017-11-25T02:47:36.126Z,1002.98
2017-11-25T02:48:36.110Z,1002.95
2017-11-25T02:49:36.088Z,1002.92
2017-11-25T02:50:36.069Z,1002.95
2017-11-25T02:51:36.054Z,1002.88
2017-11-25T02:52:36.032Z,1002.87
2017-11-25T02:53:36.007Z,1002.86
2017-11-25T02:54:35.987Z,1002.84
2017-11-25T02:55:35.967Z,1002.88
2017-11-25T02:56:35.945Z,1002.86
2017-11-25T02:57:35.937Z,1002.86
2017-11-25T02:58:35.924Z,1002.84
2017-11-25T02:59:35.897Z,1002.80
2017-11-25T03:00:35.874Z,1002.89
2017-11-25T03:01:35.849Z,1002.96
2017-11-25T03:02:35.836Z,1003.05
2017-11-25T03:03:35.809Z,1003.07
2017-11-25T03:04:35.787Z,1003.07
2017-11-25T03:05:35.769Z,1002.96
2017-11-25T03:06:35.757Z,1002.99
2017-11-25T03:07:35.728Z,1002.98
2017-11-25T03:08:35.715Z,1002.99
2017-11-25T03:09:35.704Z,1002.92
2017-11-25T03:10:35.665Z,1002.93
2017-11-25T03:11:35.648Z,1002.88
2017-11-25T03:12:35.628Z,1002.89
2017-11-25T03:13:35.607Z,1002.89
2017-11-25T03:14:35.593Z,1002.92
2017-11-25T03:15:35.568Z,1002.93
2017-11-25T03:16:35.550Z,1002.92
2017-11-25T03:17:35.535Z,1002.88
2017-11-25T03:18:35.520Z,1002.89
2017-11-25T03:19:35.495Z,1002.89
2017-11-25T03:20:35.474Z,1002.84
2017-11-25T03:21:35.450Z,1002.86
2017-11-25T03:22:35.440Z,1002.86
2017-11-25T03:23:35.412Z,1002.89
2017-11-25T03:24:35.394Z,1002.83
2017-11-25T03:25:35.376Z,1002.83
2017-11-25T03:26:35.355Z,1002.78
2017-11-25T03:27:35.333Z,1002.73
2017-11-25T03:28:35.317Z,1002.72
2017-11-25T03:29:35.308Z,1002.69
2017-11-25T03:30:35.275Z,1002.69
2017-11-25T03:31:35.248Z,1002.71
2017-11-25T03:32:35.242Z,1002.72
2017-11-25T03:33:35.209Z,1002.69
2017-11-25T03:34:35.193Z,1002.67
2017-11-25T03:35:35.171Z,1002.67
2017-11-25T03:36:35.156Z,1002.67
2017-11-25T03:37:35.135Z,1002.62
2017-11-25T03:38:35.115Z,1002.62
2017-11-25T03:39:35.093Z,1002.61
2017-11-25T03:40:35.074Z,1002.60
2017-11-25T03:41:35.052Z,1002.63
2017-11-25T03:42:35.034Z,1002.67
2017-11-25T03:43:35.016Z,1002.67
2017-11-25T03:44:34.993Z,1002.65
2017-11-25T03:45:34.975Z,1002.62
2017-11-25T03:46:34.953Z,1002.63
2017-11-25T03:47:34.932Z,1002.61
2017-11-25T03:48:34.916Z,1002.60
2017-11-25T03:49:34.893Z,1002.62
2017-11-25T03:50:34.876Z,1002.61
2017-11-25T03:51:34.864Z,1002.61
2017-11-25T03:52:34.836Z,1002.57
2017-11-25T03:53:34.815Z,1002.57
2017-11-25T03:54:34.795Z,1002.48
2017-11-25T03:55:34.783Z,1002.48
2017-11-25T03:56:34.759Z,1002.51
2017-11-25T03:57:34.735Z,1002.53
2017-11-25T03:58:34.713Z,1002.58
2017-11-25T03:59:34.695Z,1002.61
2017-11-25T04:00:34.674Z,1002.60
2017-11-25T04:01:34.655Z,1002.60
2017-11-25T04:02:34.635Z,1002.51
2017-11-25T04:03:34.616Z,1002.48
2017-11-25T04:04:34.595Z,1002.38
2017-11-25T04:05:34.577Z,1002.36
2017-11-25T04:06:34.565Z,1002.39
2017-11-25T04:07:34.538Z,1002.37
2017-11-25T04:08:34.516Z,1002.33
2017-11-25T04:09:34.494Z,1002.34
2017-11-25T04:10:34.473Z,1002.33
2017-11-25T04:11:34.455Z,1002.32
2017-11-25T04:12:34.438Z,1002.33
2017-11-25T04:13:34.423Z,1002.35
2017-11-25T04:14:34.393Z,1002.33
2017-11-25T04:15:34.373Z,1002.36
2017-11-25T04:16:34.358Z,1002.35
2017-11-25T04:17:34.334Z,1002.31
2017-11-25T04:18:34.316Z,1002.25
2017-11-25T04:19:34.294Z,1002.24
2017-11-25T04:20:34.279Z,1002.14
2017-11-25T04:21:34.255Z,1002.10
2017-11-25T04:22:34.236Z,1002.08
2017-11-25T04:23:34.216Z,1002.07
2017-11-25T04:24:34.199Z,1002.05
2017-11-25T04:25:34.174Z,1001.98
2017-11-25T04:26:34.155Z,1002.05
2017-11-25T04:27:34.134Z,1002.05
2017-11-25T04:28:34.123Z,1002.09
2017-11-25T04:29:34.095Z,1002.08
2017-11-25T04:30:34.074Z,1002.11
2017-11-25T04:31:34.057Z,1002.09
2017-11-25T04:32:34.034Z,1002.09
2017-11-25T04:33:34.035Z,1002.09
2017-11-25T04:34:33.993Z,1002.06
2017-11-25T04:35:33.980Z,1002.10
2017-11-25T04:36:33.953Z,1002.12
2017-11-25T04:37:33.945Z,1002.10
2017-11-25T04:38:33.916Z,1002.05
2017-11-25T04:39:33.895Z,1002.03
2017-11-25T04:40:33.876Z,1002.00
2017-11-25T04:41:33.861Z,1002.00
2017-11-25T04:42:33.836Z,1001.96
2017-11-25T04:43:33.823Z,1001.97
2017-11-25T04:44:33.801Z,1001.92
2017-11-25T04:45:33.773Z,1001.92
2017-11-25T04:46:33.761Z,1001.91
2017-11-25T04:47:33.734Z,1001.91
2017-11-25T04:48:33.716Z,1001.97
2017-11-25T04:49:33.698Z,1001.98
2017-11-25T04:50:33.676Z,1001.95
2017-11-25T04:51:33.680Z,1001.96
2017-11-25T04:52:33.633Z,1001.94
2017-11-25T04:53:33.618Z,1001.94
2017-11-25T04:54:33.592Z,1001.93
2017-11-25T04:55:33.579Z,1001.87
2017-11-25T04:56:33.563Z,1001.87
2017-11-25T04:57:33.545Z,1001.86
2017-11-25T04:58:33.517Z,1001.89
2017-11-25T04:59:33.499Z,1001.87
2017-11-25T05:00:33.478Z,1001.87
2017-11-25T05:01:33.458Z,1001.87
2017-11-25T05:02:33.436Z,1001.88
2017-11-25T05:03:33.425Z,1001.88
2017-11-25T05:04:33.407Z,1001.88
2017-11-25T05:05:33.382Z,1001.89
2017-11-25T05:06:33.363Z,1001.89
2017-11-25T05:07:33.369Z,1001.92
2017-11-25T05:08:33.315Z,1001.92
2017-11-25T05:09:33.297Z,1001.89
2017-11-25T05:10:33.277Z,1001.90
2017-11-25T05:11:33.263Z,1001.89
2017-11-25T05:12:33.243Z,1001.91
2017-11-25T05:13:33.215Z,1001.87
2017-11-25T05:14:33.198Z,1001.86
2017-11-25T05:15:33.186Z,1001.81
2017-11-25T05:16:33.161Z,1001.73
2017-11-25T05:17:33.142Z,1001.70
2017-11-25T05:18:33.120Z,1001.67
2017-11-25T05:19:33.099Z,1001.60
2017-11-25T05:20:33.086Z,1001.57
2017-11-25T05:21:33.060Z,1001.50
2017-11-25T05:22:33.043Z,1001.49
2017-11-25T05:23:33.015Z,1001.51
2017-11-25T05:24:33.006Z,1001.49
2017-11-25T05:25:32.985Z,1001.59
2017-11-25T05:26:32.964Z,1001.60
2017-11-25T05:27:32.936Z,1001.65
2017-11-25T05:28:32.916Z,1001.70
2017-11-25T05:29:32.894Z,1001.70
2017-11-25T05:30:32.876Z,1001.69
2017-11-25T05:31:32.859Z,1001.76
2017-11-25T05:32:32.841Z,1001.76
2017-11-25T05:33:32.814Z,1001.74
2017-11-25T05:34:32.794Z,1001.78
2017-11-25T05:35:32.774Z,1001.76
2017-11-25T05:36:32.761Z,1001.75
2017-11-25T05:37:32.734Z,1001.77
2017-11-25T05:38:32.715Z,1001.76
2017-11-25T05:39:32.694Z,1001.75
2017-11-25T05:40:32.674Z,1001.76
2017-11-25T05:41:32.653Z,1001.73
2017-11-25T05:42:32.634Z,1001.77
2017-11-25T05:43:32.616Z,1001.75
2017-11-25T05:44:32.594Z,1001.77
2017-11-25T05:45:32.577Z,1001.76
2017-11-25T05:46:32.553Z,1001.77
2017-11-25T05:47:32.534Z,1001.76
2017-11-25T05:48:32.516Z,1001.74
2017-11-25T05:49:32.501Z,1001.74
2017-11-25T05:50:32.471Z,1001.72
2017-11-25T05:51:32.460Z,1001.75
2017-11-25T05:52:32.447Z,1001.75
2017-11-25T05:53:32.415Z,1001.81
2017-11-25T05:54:32.394Z,1001.86
2017-11-25T05:55:32.375Z,1001.87
2017-11-25T05:56:32.352Z,1001.88
2017-11-25T05:57:32.334Z,1001.89
2017-11-25T05:58:32.344Z,1001.92
2017-11-25T05:59:32.294Z,1001.92
2017-11-25T06:00:32.277Z,1001.96
2017-11-25T06:01:32.253Z,1001.97
2017-11-25T06:02:32.245Z,1002.00
2017-11-25T06:03:32.214Z,1002.02
2017-11-25T06:04:32.193Z,1002.04
2017-11-25T06:05:32.176Z,1002.02
2017-11-25T06:06:32.150Z,1002.05
2017-11-25T06:07:32.132Z,1001.98
2017-11-25T06:08:32.111Z,1002.01
2017-11-25T06:09:32.094Z,1002.00
2017-11-25T06:10:32.072Z,1002.02
2017-11-25T06:11:32.054Z,1002.04
2017-11-25T06:12:32.031Z,1002.03
2017-11-25T06:13:32.012Z,1002.01
2017-11-25T06:14:31.995Z,1002.07
2017-11-25T06:15:31.973Z,1002.02
2017-11-25T06:16:31.955Z,1002.03
2017-11-25T06:17:31.932Z,1001.99
2017-11-25T06:18:31.909Z,1001.97
2017-11-25T06:19:31.889Z,1001.95
2017-11-25T06:20:31.868Z,1001.97
2017-11-25T06:21:31.863Z,1002.00
2017-11-25T06:22:31.830Z,1001.97
2017-11-25T06:23:31.809Z,1002.01
2017-11-25T06:24:31.793Z,1001.99
2017-11-25T06:25:31.771Z,1002.00
2017-11-25T06:26:31.754Z,1002.02
2017-11-25T06:27:31.734Z,1001.99
2017-11-25T06:28:31.718Z,1001.98
2017-11-25T06:29:31.693Z,1001.95
2017-11-25T06:30:31.667Z,1001.92
2017-11-25T06:31:31.644Z,1001.90
2017-11-25T06:32:31.627Z,1001.90
2017-11-25T06:33:31.605Z,1001.94
2017-11-25T06:34:31.588Z,1001.92
2017-11-25T06:35:31.564Z,1001.92
2017-11-25T06:36:31.544Z,1001.95
2017-11-25T06:37:31.524Z,1002.00
2017-11-25T06:38:31.502Z,1001.94
2017-11-25T06:39:31.488Z,1001.92
2017-11-25T06:40:31.464Z,1001.90
2017-11-25T06:41:31.447Z,1001.82
2017-11-25T06:42:31.423Z,1001.81
2017-11-25T06:43:31.404Z,1001.79
2017-11-25T06:44:31.384Z,1001.78
2017-11-25T06:45:31.414Z,1001.79
2017-11-25T06:46:31.350Z,1001.80
2017-11-25T06:47:31.324Z,1001.77
2017-11-25T06:48:31.305Z,1001.79
2017-11-25T06:49:31.330Z,1001.79
2017-11-25T06:50:31.260Z,1001.79
2017-11-25T06:51:31.255Z,1001.79
2017-11-25T06:52:31.226Z,1001.80
2017-11-25T06:53:31.255Z,1001.83
2017-11-25T06:54:31.185Z,1001.81
2017-11-25T06:55:31.216Z,1001.83
2017-11-25T06:56:31.142Z,1001.87
2017-11-25T06:57:31.126Z,1001.86
2017-11-25T06:58:31.108Z,1001.89
2017-11-25T06:59:31.197Z,1001.88
2017-11-25T07:00:31.065Z,1001.86
2017-11-25T07:01:31.046Z,1001.87
2017-11-25T07:02:31.032Z,1001.86
2017-11-25T07:03:31.066Z,1001.86
2017-11-25T07:04:30.985Z,1001.86
2017-11-25T07:05:30.963Z,1001.89
2017-11-25T07:06:30.937Z,1001.87
2017-11-25T07:07:30.972Z,1001.91
2017-11-25T07:08:30.898Z,1001.94
2017-11-25T07:09:30.882Z,1001.96
2017-11-25T07:10:30.853Z,1001.94
2017-11-25T07:11:30.884Z,1002.01
2017-11-25T07:12:30.816Z,1002.01
2017-11-25T07:13:30.845Z,1002.01
2017-11-25T07:14:30.776Z,1001.99
2017-11-25T07:15:30.852Z,1002.04
2017-11-25T07:16:30.733Z,1002.04
2017-11-25T07:17:30.723Z,1001.99
2017-11-25T07:18:30.715Z,1002.05
2017-11-25T07:19:30.733Z,1002.04
2017-11-25T07:20:30.656Z,1002.06
2017-11-25T07:21:30.636Z,1002.09
2017-11-25T07:22:30.624Z,1002.12
2017-11-25T07:23:30.595Z,1002.17
2017-11-25T07:24:30.576Z,1002.19
2017-11-25T07:25:30.566Z,1002.26
2017-11-25T07:26:30.533Z,1002.27
2017-11-25T07:27:30.516Z,1002.33
2017-11-25T07:28:30.493Z,1002.34
2017-11-25T07:29:30.476Z,1002.32
2017-11-25T07:30:30.456Z,1002.36
2017-11-25T07:31:30.434Z,1002.38
2017-11-25T07:32:30.408Z,1002.39
2017-11-25T07:33:30.401Z,1002.42
2017-11-25T07:34:30.375Z,1002.42
2017-11-25T07:35:30.344Z,1002.45
2017-11-25T07:36:30.338Z,1002.44
2017-11-25T07:37:30.305Z,1002.49
2017-11-25T07:38:30.284Z,1002.45
2017-11-25T07:39:30.266Z,1002.46
2017-11-25T07:40:30.249Z,1002.46
2017-11-25T07:41:30.225Z,1002.50
2017-11-25T07:42:30.207Z,1002.51
2017-11-25T07:43:30.186Z,1002.57
2017-11-25T07:44:30.165Z,1002.57
2017-11-25T07:45:30.146Z,1002.58
2017-11-25T07:46:30.121Z,1002.56
2017-11-25T07:47:30.104Z,1002.58
2017-11-25T07:48:30.081Z,1002.61
2017-11-25T07:49:30.063Z,1002.63
2017-11-25T07:50:30.045Z,1002.65
2017-11-25T07:51:30.018Z,1002.65
2017-11-25T07:52:30.002Z,1002.66
2017-11-25T07:53:29.981Z,1002.69
2017-11-25T07:54:29.964Z,1002.73
2017-11-25T07:55:29.937Z,1002.71
2017-11-25T07:56:29.924Z,1002.74
2017-11-25T07:57:29.894Z,1002.72
2017-11-25T07:58:29.875Z,1002.77
2017-11-25T07:59:29.856Z,1002.76
2017-11-25T08:00:29.836Z,1002.78
2017-11-25T08:01:29.817Z,1002.77
2017-11-25T08:02:29.794Z,1002.75
2017-11-25T08:03:29.776Z,1002.76
2017-11-25T08:04:29.765Z,1002.81
2017-11-25T08:05:29.743Z,1002.80
2017-11-25T08:06:29.716Z,1002.83
2017-11-25T08:07:29.692Z,1002.79
2017-11-25T08:08:29.673Z,1002.82
2017-11-25T08:09:29.668Z,1002.83
2017-11-25T08:10:29.635Z,1002.87
2017-11-25T08:11:29.606Z,1002.86
2017-11-25T08:12:29.590Z,1002.87
2017-11-25T08:13:29.565Z,1002.87
2017-11-25T08:14:29.541Z,1002.88
2017-11-25T08:15:29.525Z,1002.92
2017-11-25T08:16:29.503Z,1002.91
2017-11-25T08:17:29.483Z,1002.90
2017-11-25T08:18:29.463Z,1002.92
2017-11-25T08:19:29.447Z,1002.97
2017-11-25T08:20:29.418Z,1002.96
2017-11-25T08:21:29.499Z,1002.97
2017-11-25T08:22:29.386Z,1002.96
2017-11-25T08:23:29.359Z,1002.97
2017-11-25T08:24:29.342Z,1003.00
2017-11-25T08:25:29.424Z,1002.97
2017-11-25T08:26:29.299Z,1002.99
2017-11-25T08:27:29.279Z,1003.01
2017-11-25T08:28:29.254Z,1003.04
2017-11-25T08:29:29.250Z,1003.07
2017-11-25T08:30:29.215Z,1003.08
2017-11-25T08:31:29.202Z,1003.12
2017-11-25T08:32:29.173Z,1003.09
2017-11-25T08:33:29.174Z,1003.12
2017-11-25T08:34:29.135Z,1003.13
2017-11-25T08:35:29.124Z,1003.12
2017-11-25T08:36:29.125Z,1003.15
2017-11-25T08:37:29.084Z,1003.16
2017-11-25T08:38:29.052Z,1003.22
2017-11-25T08:39:29.035Z,1003.22
2017-11-25T08:40:29.012Z,1003.27
2017-11-25T08:41:29.001Z,1003.27
2017-11-25T08:42:28.973Z,1003.27
2017-11-25T08:43:28.962Z,1003.29
2017-11-25T08:44:28.934Z,1003.28
2017-11-25T08:45:28.920Z,1003.32
2017-11-25T08:46:28.895Z,1003.31
2017-11-25T08:47:28.884Z,1003.35
2017-11-25T08:48:28.855Z,1003.34
2017-11-25T08:49:28.842Z,1003.35
2017-11-25T08:50:28.814Z,1003.35
2017-11-25T08:51:28.847Z,1003.35
2017-11-25T08:52:28.774Z,1003.38
2017-11-25T08:53:28.755Z,1003.37
2017-11-25T08:54:28.735Z,1003.40
2017-11-25T08:55:28.716Z,1003.42
2017-11-25T08:56:28.696Z,1003.38
2017-11-25T08:57:28.677Z,1003.39
2017-11-25T08:58:28.658Z,1003.37
2017-11-25T08:59:28.686Z,1003.42
2017-11-25T09:00:28.620Z,1003.42
2017-11-25T09:01:28.593Z,1003.41
2017-11-25T09:02:28.589Z,1003.48
2017-11-25T09:03:28.559Z,1003.46
2017-11-25T09:04:28.535Z,1003.46
2017-11-25T09:05:28.519Z,1003.50
2017-11-25T09:06:28.496Z,1003.48
2017-11-25T09:07:28.475Z,1003.53
2017-11-25T09:08:28.459Z,1003.51
2017-11-25T09:09:28.431Z,1003.53
2017-11-25T09:10:28.416Z,1003.50
2017-11-25T09:11:28.400Z,1003.53
2017-11-25T09:12:28.375Z,1003.54
2017-11-25T09:13:28.352Z,1003.59
2017-11-25T09:14:28.335Z,1003.61
2017-11-25T09:15:28.319Z,1003.63
2017-11-25T09:16:28.296Z,1003.69
2017-11-25T09:17:28.277Z,1003.71
2017-11-25T09:18:28.257Z,1003.69
2017-11-25T09:19:28.237Z,1003.68
2017-11-25T09:20:28.216Z,1003.68
2017-11-25T09:21:28.292Z,1003.66
2017-11-25T09:22:28.177Z,1003.66
2017-11-25T09:23:28.153Z,1003.65
2017-11-25T09:24:28.136Z,1003.64
2017-11-25T09:25:28.129Z,1003.68
2017-11-25T09:26:28.094Z,1003.65
2017-11-25T09:27:28.076Z,1003.69
2017-11-25T09:28:28.061Z,1003.70
2017-11-25T09:29:28.034Z,1003.69
2017-11-25T09:30:28.015Z,1003.68
2017-11-25T09:31:27.994Z,1003.71
2017-11-25T09:32:27.984Z,1003.72
2017-11-25T09:33:27.961Z,1003.68
2017-11-25T09:34:27.939Z,1003.72
2017-11-25T09:35:27.916Z,1003.67
2017-11-25T09:36:27.894Z,1003.72
2017-11-25T09:37:27.874Z,1003.73
2017-11-25T09:38:27.859Z,1003.71
2017-11-25T09:39:27.834Z,1003.72
2017-11-25T09:40:27.817Z,1003.69
2017-11-25T09:41:27.795Z,1003.71
2017-11-25T09:42:27.775Z,1003.72
2017-11-25T09:43:27.756Z,1003.72
2017-11-25T09:44:27.746Z,1003.71
2017-11-25T09:45:27.720Z,1003.73
2017-11-25T09:46:27.704Z,1003.70
2017-11-25T09:47:27.694Z,1003.72
2017-11-25T09:48:27.657Z,1003.72
2017-11-25T09:49:27.648Z,1003.72
2017-11-25T09:50:27.633Z,1003.72
2017-11-25T09:51:27.600Z,1003.75
2017-11-25T09:52:27.585Z,1003.71
2017-11-25T09:53:27.565Z,1003.71
2017-11-25T09:54:27.542Z,1003.69
2017-11-25T09:55:27.520Z,1003.67
2017-11-25T09:56:27.502Z,1003.63
2017-11-25T09:57:27.488Z,1003.66
2017-11-25T09:58:27.460Z,1003.66
2017-11-25T09:59:27.451Z,1003.64
2017-11-25T10:00:27.426Z,1003.65
2017-11-25T10:01:27.405Z,1003.63
2017-11-25T10:02:27.380Z,1003.63
2017-11-25T10:03:27.365Z,1003.63
2017-11-25T10:04:27.342Z,1003.68
2017-11-25T10:05:27.323Z,1003.68
2017-11-25T10:06:27.315Z,1003.66
2017-11-25T10:07:27.285Z,1003.66
2017-11-25T10:08:27.267Z,1003.69
2017-11-25T10:09:27.248Z,1003.72
2017-11-25T10:10:27.229Z,1003.74
2017-11-25T10:11:27.202Z,1003.76
2017-11-25T10:12:27.182Z,1003.76
2017-11-25T10:13:27.185Z,1003.75
2017-11-25T10:14:27.146Z,1003.73
2017-11-25T10:15:27.135Z,1003.74
2017-11-25T10:16:27.108Z,1003.72
2017-11-25T10:17:27.089Z,1003.73
2017-11-25T10:18:27.064Z,1003.75
2017-11-25T10:19:27.049Z,1003.78
2017-11-25T10:20:27.023Z,1003.77
2017-11-25T10:21:27.018Z,1003.78
2017-11-25T10:22:26.998Z,1003.80
2017-11-25T10:23:26.965Z,1003.80
2017-11-25T10:24:26.962Z,1003.80
2017-11-25T10:25:26.927Z,1003.84
2017-11-25T10:26:26.925Z,1003.83
2017-11-25T10:27:26.885Z,1003.88
2017-11-25T10:28:26.877Z,1003.89
2017-11-25T10:29:26.858Z,1003.91
2017-11-25T10:30:26.828Z,1003.88
2017-11-25T10:31:26.804Z,1003.86
2017-11-25T10:32:26.785Z,1003.81
2017-11-25T10:33:26.775Z,1003.85
2017-11-25T10:34:26.750Z,1003.81
2017-11-25T10:35:26.726Z,1003.81
2017-11-25T10:36:26.717Z,1003.76
2017-11-25T10:37:26.685Z,1003.81
2017-11-25T10:38:26.667Z,1003.76
2017-11-25T10:39:26.648Z,1003.80
2017-11-25T10:40:26.635Z,1003.83
2017-11-25T10:41:26.613Z,1003.83
2017-11-25T10:42:26.592Z,1003.85
2017-11-25T10:43:26.576Z,1003.86
2017-11-25T10:44:26.549Z,1003.87
2017-11-25T10:45:26.553Z,1003.86
2017-11-25T10:46:26.517Z,1003.88
2017-11-25T10:47:26.495Z,1003.85
2017-11-25T10:48:26.476Z,1003.86
2017-11-25T10:49:26.492Z,1003.85
2017-11-25T10:50:26.447Z,1003.81
2017-11-25T10:51:26.435Z,1003.84
2017-11-25T10:52:26.398Z,1003.85
2017-11-25T10:53:26.377Z,1003.86
2017-11-25T10:54:26.358Z,1003.86
2017-11-25T10:55:26.346Z,1003.85
2017-11-25T10:56:26.319Z,1003.88
2017-11-25T10:57:26.304Z,1003.87
2017-11-25T10:58:26.287Z,1003.88
2017-11-25T10:59:26.281Z,1003.90
2017-11-25T11:00:26.247Z,1004.11
2017-11-25T11:01:26.224Z,1004.15
2017-11-25T11:02:26.206Z,1004.02
2017-11-25T11:03:26.188Z,1004.04
2017-11-25T11:04:26.178Z,1004.12
2017-11-25T11:05:26.144Z,1004.12
2017-11-25T11:06:26.148Z,1004.17
2017-11-25T11:07:26.114Z,1004.23
2017-11-25T11:08:26.097Z,1004.17
2017-11-25T11:09:26.075Z,1004.24
2017-11-25T11:10:26.064Z,1004.22
2017-11-25T11:11:26.040Z,1004.22
2017-11-25T11:12:26.024Z,1004.14
2017-11-25T11:13:26.002Z,1004.26
2017-11-25T11:14:25.986Z,1004.24
2017-11-25T11:15:25.979Z,1004.23
2017-11-25T11:16:25.954Z,1004.23
2017-11-25T11:17:25.935Z,1004.24
2017-11-25T11:18:25.923Z,1004.12
2017-11-25T11:19:25.904Z,1004.12
2017-11-25T11:20:25.892Z,1004.08
2017-11-25T11:21:25.865Z,1004.16
2017-11-25T11:22:25.851Z,1004.16
2017-11-25T11:23:25.834Z,1004.18
2017-11-25T11:24:25.839Z,1004.13
2017-11-25T11:25:25.818Z,1004.23
2017-11-25T11:26:25.796Z,1004.26
2017-11-25T11:27:25.779Z,1004.26
2017-11-25T11:28:25.761Z,1004.27
2017-11-25T11:29:25.741Z,1004.30
2017-11-25T11:30:25.728Z,1004.31
2017-11-25T11:31:25.721Z,1004.30
2017-11-25T11:32:25.696Z,1004.24
2017-11-25T11:33:25.683Z,1004.30
2017-11-25T11:34:25.667Z,1004.29
2017-11-25T11:35:25.655Z,1004.30
2017-11-25T11:36:25.641Z,1004.31
2017-11-25T11:37:25.625Z,1004.27
2017-11-25T11:38:25.605Z,1004.31
2017-11-25T11:39:25.648Z,1004.28
2017-11-25T11:40:25.578Z,1004.23
2017-11-25T11:41:25.579Z,1004.30
2017-11-25T11:42:25.555Z,1004.27
2017-11-25T11:43:25.547Z,1004.34
2017-11-25T11:44:25.526Z,1004.37
2017-11-25T11:45:25.511Z,1004.32
2017-11-25T11:46:25.495Z,1004.35
2017-11-25T11:47:25.487Z,1004.36
2017-11-25T11:48:25.472Z,1004.35
2017-11-25T11:49:25.461Z,1004.36
2017-11-25T11:50:25.447Z,1004.33
2017-11-25T11:51:25.436Z,1004.31
2017-11-25T11:52:25.421Z,1004.34
2017-11-25T11:53:25.416Z,1004.34
2017-11-25T11:54:25.402Z,1004.33
2017-11-25T11:55:25.386Z,1004.33
2017-11-25T11:56:25.366Z,1004.30
2017-11-25T11:57:25.355Z,1004.25
2017-11-25T11:58:25.345Z,1004.36
2017-11-25T11:59:25.478Z,1004.30
2017-11-25T12:00:25.321Z,1004.35
2017-11-25T12:01:25.355Z,1004.29
2017-11-25T12:02:25.292Z,1004.32
2017-11-25T12:03:25.334Z,1004.37
2017-11-25T12:04:25.277Z,1004.38
2017-11-25T12:05:25.305Z,1004.35